Time,TemperatureF,DewpointF,PressureIn,WindDirection,WindDirectionDegrees,WindSpeedMPH,WindSpeedGustMPH,Humidity,HourlyPrecipIn,Conditions,Clouds,dailyrainin,SolarRadiationWatts/m^2,SoftwareType,DateUTC
2013-09-26 00:03:00,64.4,63.0,29.91,NNW,336,0.0,-999.0,94,-99.99,,,0.00,0,weatherlink.com 1.10,2013-09-26 05:03:00,
2013-09-26 00:18:00,64.5,63.0,29.91,NNW,336,0.0,-999.0,94,-99.99,,,0.00,0,weatherlink.com 1.10,2013-09-26 05:18:00,
2013-09-26 00:33:00,64.5,63.0,29.91,NNW,336,0.0,-999.0,95,-99.99,,,0.00,0,weatherlink.com 1.10,2013-09-26 05:33:00,
2013-09-26 00:48:00,64.2,63.0,29.91,NNW,336,0.0,-999.0,95,-99.99,,,0.00,0,weatherlink.com 1.10,2013-09-26 05:48:00,
2013-09-26 01:03:00,64.2,63.0,29.92,NNW,336,0.0,-999.0,95,-99.99,,,0.00,0,weatherlink.com 1.10,2013-09-26 06:03:00,
2013-09-26 01:18:00,64.2,63.0,29.91,NNW,336,0.0,-999.0,95,-99.99,,,0.00,0,weatherlink.com 1.10,2013-09-26 06:18:00,
2013-09-26 01:33:00,63.9,63.0,29.91,NNW,336,0.0,-999.0,95,-99.99,,,0.00,0,weatherlink.com 1.10,2013-09-26 06:33:00,
2013-09-26 01:48:00,63.6,62.0,29.91,NNW,336,0.0,-999.0,95,-99.99,,,0.00,0,weatherlink.com 1.10,2013-09-26 06:48:00,
2013-09-26 02:03:00,63.1,62.0,29.92,NNW,336,0.0,-999.0,95,-99.99,,,0.00,0,weatherlink.com 1.10,2013-09-26 07:03:00,
2013-09-26 02:18:00,62.5,61.0,29.92,NNW,336,0.0,-999.0,96,-99.99,,,0.01,0,weatherlink.com 1.10,2013-09-26 07:18:00,
2013-09-26 02:33:00,62.3,61.0,29.92,NNW,336,0.0,-999.0,96,-99.99,,,0.01,0,weatherlink.com 1.10,2013-09-26 07:33:00,
2013-09-26 02:48:00,62.3,61.0,29.92,NNW,336,0.0,-999.0,96,-99.99,,,0.01,0,weatherlink.com 1.10,2013-09-26 07:48:00,
2013-09-26 03:03:00,62.2,61.0,29.93,NNW,336,0.0,-999.0,96,-99.99,,,0.01,0,weatherlink.com 1.10,2013-09-26 08:03:00,
2013-09-26 03:18:00,62.3,61.0,29.93,NNW,336,0.0,-999.0,96,-99.99,,,0.01,0,weatherlink.com 1.10,2013-09-26 08:18:00,
2013-09-26 03:33:00,62.0,61.0,29.93,NNW,336,0.0,-999.0,96,-99.99,,,0.01,0,weatherlink.com 1.10,2013-09-26 08:33:00,
2013-09-26 03:48:00,62.0,61.0,29.93,NNW,336,0.0,-999.0,96,-99.99,,,0.01,0,weatherlink.com 1.10,2013-09-26 08:48:00,
2013-09-26 04:03:00,61.9,61.0,29.93,NNW,336,0.0,-999.0,97,-99.99,,,0.01,0,weatherlink.com 1.10,2013-09-26 09:03:00,
2013-09-26 04:18:00,62.1,61.0,29.93,NNW,336,0.0,-999.0,97,-99.99,,,0.01,0,weatherlink.com 1.10,2013-09-26 09:18:00,
2013-09-26 04:33:00,62.2,61.0,29.94,NNW,336,0.0,-999.0,97,-99.99,,,0.01,0,weatherlink.com 1.10,2013-09-26 09:33:00,
2013-09-26 04:48:00,62.5,62.0,29.94,NNW,336,0.0,-999.0,97,-99.99,,,0.01,0,weatherlink.com 1.10,2013-09-26 09:48:00,
2013-09-26 05:03:00,62.6,62.0,29.94,NNW,336,0.0,-999.0,97,-99.99,,,0.01,0,weatherlink.com 1.10,2013-09-26 10:03:00,
2013-09-26 05:18:00,62.4,62.0,29.95,NNW,336,0.0,-999.0,97,-99.99,,,0.01,0,weatherlink.com 1.10,2013-09-26 10:18:00,
2013-09-26 05:33:00,62.1,61.0,29.96,NNW,336,0.0,-999.0,97,-99.99,,,0.01,0,weatherlink.com 1.10,2013-09-26 10:33:00,
2013-09-26 05:48:00,62.0,61.0,29.96,NNW,336,0.0,-999.0,97,-99.99,,,0.01,0,weatherlink.com 1.10,2013-09-26 10:48:00,
2013-09-26 06:03:00,61.7,61.0,29.96,NNW,336,0.0,-999.0,97,-99.99,,,0.01,0,weatherlink.com 1.10,2013-09-26 11:03:00,
2013-09-26 06:19:00,61.6,61.0,29.97,NNW,336,0.0,-999.0,97,-99.99,,,0.01,0,weatherlink.com 1.10,2013-09-26 11:19:00,
2013-09-26 06:34:00,61.5,61.0,29.97,NNW,336,0.0,-999.0,97,-99.99,,,0.01,0,weatherlink.com 1.10,2013-09-26 11:34:00,
2013-09-26 06:49:00,61.4,61.0,29.98,NNW,336,0.0,-999.0,97,-99.99,,,0.01,0,weatherlink.com 1.10,2013-09-26 11:49:00,
2013-09-26 07:04:00,61.4,61.0,29.99,NNW,336,0.0,-999.0,97,-99.99,,,0.01,0,weatherlink.com 1.10,2013-09-26 12:04:00,
2013-09-26 07:19:00,61.3,61.0,29.99,NNW,336,0.0,-999.0,97,-99.99,,,0.01,9,weatherlink.com 1.10,2013-09-26 12:19:00,
2013-09-26 07:34:00,61.3,61.0,30.00,NNW,336,0.0,-999.0,97,-99.99,,,0.01,25,weatherlink.com 1.10,2013-09-26 12:34:00,
2013-09-26 07:49:00,61.4,61.0,30.00,NNW,336,0.0,-999.0,98,-99.99,,,0.01,40,weatherlink.com 1.10,2013-09-26 12:49:00,
2013-09-26 08:04:00,61.5,61.0,30.00,NNW,336,0.0,-999.0,98,-99.99,,,0.01,81,weatherlink.com 1.10,2013-09-26 13:04:00,
2013-09-26 08:19:00,61.9,61.0,30.01,NNW,337,0.0,-999.0,98,-99.99,,,0.01,100,weatherlink.com 1.10,2013-09-26 13:19:00,
2013-09-26 08:34:00,62.1,62.0,30.01,NNW,337,0.0,-999.0,98,-99.99,,,0.01,95,weatherlink.com 1.10,2013-09-26 13:34:00,
2013-09-26 08:49:00,62.3,62.0,30.02,NNW,337,0.0,-999.0,98,-99.99,,,0.01,130,weatherlink.com 1.10,2013-09-26 13:49:00,
2013-09-26 09:04:00,63.0,63.0,30.02,NNW,337,0.0,-999.0,98,-99.99,,,0.01,202,weatherlink.com 1.10,2013-09-26 14:04:00,
2013-09-26 09:20:00,64.3,64.0,30.02,NNW,337,0.0,-999.0,98,-99.99,,,0.01,355,weatherlink.com 1.10,2013-09-26 14:20:00,
2013-09-26 09:35:00,64.6,64.0,30.03,NNW,337,0.0,-999.0,98,-99.99,,,0.01,387,weatherlink.com 1.10,2013-09-26 14:35:00,
2013-09-26 09:50:00,65.3,65.0,30.03,NNW,337,0.0,-999.0,98,-99.99,,,0.01,439,weatherlink.com 1.10,2013-09-26 14:50:00,
2013-09-26 10:05:00,66.3,66.0,30.03,NNW,337,0.0,-999.0,98,-99.99,,,0.01,482,weatherlink.com 1.10,2013-09-26 15:05:00,
2013-09-26 10:20:00,67.0,67.0,30.03,NNW,337,0.0,-999.0,98,-99.99,,,0.01,520,weatherlink.com 1.10,2013-09-26 15:20:00,
2013-09-26 10:35:00,68.3,68.0,30.03,NNW,337,0.0,-999.0,98,-99.99,,,0.01,559,weatherlink.com 1.10,2013-09-26 15:35:00,
2013-09-26 10:50:00,69.7,69.0,30.03,NNW,337,0.0,-999.0,96,-99.99,,,0.01,603,weatherlink.com 1.10,2013-09-26 15:50:00,
2013-09-26 11:05:00,71.0,68.0,30.03,NNW,337,0.0,-999.0,91,-99.99,,,0.01,141,weatherlink.com 1.10,2013-09-26 16:05:00,
2013-09-26 11:20:00,72.5,69.0,30.03,NNW,337,0.0,-999.0,89,-99.99,,,0.01,717,weatherlink.com 1.10,2013-09-26 16:20:00,
2013-09-26 11:35:00,75.0,70.0,30.02,NNW,348,0.0,-999.0,83,-99.99,,,0.01,172,weatherlink.com 1.10,2013-09-26 16:35:00,
2013-09-26 11:50:00,77.3,69.0,30.02,North,355,0.0,-999.0,76,-99.99,,,0.01,796,weatherlink.com 1.10,2013-09-26 16:50:00,
2013-09-26 12:05:00,79.4,69.0,30.02,North,5,0.0,-999.0,71,-99.99,,,0.01,849,weatherlink.com 1.10,2013-09-26 17:05:00,
2013-09-26 12:20:00,80.4,70.0,30.02,North,360,0.0,-999.0,70,-99.99,,,0.01,893,weatherlink.com 1.10,2013-09-26 17:20:00,
2013-09-26 12:35:00,81.4,69.0,30.02,North,360,0.0,-999.0,66,-99.99,,,0.01,888,weatherlink.com 1.10,2013-09-26 17:35:00,
2013-09-26 12:50:00,82.3,68.0,30.01,NE,40,0.0,-999.0,63,-99.99,,,0.01,796,weatherlink.com 1.10,2013-09-26 17:50:00,
2013-09-26 13:05:00,82.5,69.0,30.00,East,84,0.0,-999.0,63,-99.99,,,0.01,870,weatherlink.com 1.10,2013-09-26 18:05:00,
2013-09-26 13:21:00,82.8,68.0,30.00,East,86,0.0,-999.0,62,-99.99,,,0.01,863,weatherlink.com 1.10,2013-09-26 18:21:00,
2013-09-26 13:36:00,83.4,67.0,30.00,East,101,0.0,-999.0,59,-99.99,,,0.01,791,weatherlink.com 1.10,2013-09-26 18:36:00,
2013-09-26 13:51:00,83.3,67.0,29.99,East,101,0.0,-999.0,59,-99.99,,,0.01,107,weatherlink.com 1.10,2013-09-26 18:51:00,
2013-09-26 14:06:00,83.1,68.0,29.99,East,101,0.0,-999.0,60,-99.99,,,0.01,158,weatherlink.com 1.10,2013-09-26 19:06:00,
2013-09-26 14:21:00,83.6,67.0,29.99,East,101,0.0,-999.0,57,-99.99,,,0.01,793,weatherlink.com 1.10,2013-09-26 19:21:00,
2013-09-26 14:36:00,84.1,68.0,29.98,East,101,0.0,-999.0,58,-99.99,,,0.01,701,weatherlink.com 1.10,2013-09-26 19:36:00,
2013-09-26 14:51:00,84.5,68.0,29.98,East,101,0.0,-999.0,57,-99.99,,,0.01,601,weatherlink.com 1.10,2013-09-26 19:51:00,
2013-09-26 15:06:00,84.7,66.0,29.98,East,101,0.0,-999.0,53,-99.99,,,0.01,587,weatherlink.com 1.10,2013-09-26 20:06:00,
2013-09-26 15:21:00,85.1,67.0,29.97,East,101,0.0,-999.0,54,-99.99,,,0.01,626,weatherlink.com 1.10,2013-09-26 20:21:00,
2013-09-26 15:36:00,85.7,67.0,29.97,ESE,107,0.0,-999.0,53,-99.99,,,0.01,584,weatherlink.com 1.10,2013-09-26 20:36:00,
2013-09-26 15:51:00,86.4,67.0,29.97,ESE,107,0.0,-999.0,52,-99.99,,,0.01,550,weatherlink.com 1.10,2013-09-26 20:51:00,
2013-09-26 16:06:00,86.0,67.0,29.96,ESE,107,0.0,-999.0,53,-99.99,,,0.01,489,weatherlink.com 1.10,2013-09-26 21:06:00,
2013-09-26 16:21:00,85.6,67.0,29.96,ESE,107,0.0,-999.0,54,-99.99,,,0.01,452,weatherlink.com 1.10,2013-09-26 21:21:00,
2013-09-26 16:36:00,86.0,67.0,29.96,ESE,107,0.0,-999.0,53,-99.99,,,0.01,410,weatherlink.com 1.10,2013-09-26 21:36:00,
2013-09-26 16:51:00,85.8,67.0,29.96,ESE,107,0.0,-999.0,54,-99.99,,,0.01,359,weatherlink.com 1.10,2013-09-26 21:51:00,
2013-09-26 17:06:00,85.5,66.0,29.96,ESE,107,0.0,-999.0,53,-99.99,,,0.01,311,weatherlink.com 1.10,2013-09-26 22:06:00,
2013-09-26 17:21:00,85.3,67.0,29.96,ESE,107,0.0,-999.0,54,-99.99,,,0.01,292,weatherlink.com 1.10,2013-09-26 22:21:00,
2013-09-26 17:36:00,84.7,67.0,29.96,ESE,107,0.0,-999.0,56,-99.99,,,0.01,171,weatherlink.com 1.10,2013-09-26 22:36:00,
2013-09-26 17:51:00,83.7,67.0,29.96,ESE,107,0.0,-999.0,58,-99.99,,,0.01,86,weatherlink.com 1.10,2013-09-26 22:51:00,
2013-09-26 18:06:00,82.6,67.0,29.96,ESE,107,0.0,-999.0,60,-99.99,,,0.01,40,weatherlink.com 1.10,2013-09-26 23:06:00,
2013-09-26 18:21:00,81.3,67.0,29.97,ESE,107,0.0,-999.0,62,-99.99,,,0.01,28,weatherlink.com 1.10,2013-09-26 23:21:00,
2013-09-26 18:36:00,80.1,67.0,29.97,ESE,107,0.0,-999.0,64,-99.99,,,0.01,19,weatherlink.com 1.10,2013-09-26 23:36:00,
2013-09-26 18:51:00,78.9,67.0,29.97,ESE,107,0.0,-999.0,66,-99.99,,,0.01,9,weatherlink.com 1.10,2013-09-26 23:51:00,
2013-09-26 19:06:00,77.8,67.0,29.97,ESE,107,0.0,-999.0,69,-99.99,,,0.01,0,weatherlink.com 1.10,2013-09-27 00:06:00,
2013-09-26 19:21:00,77.0,67.0,29.97,ESE,107,0.0,-999.0,70,-99.99,,,0.01,0,weatherlink.com 1.10,2013-09-27 00:21:00,
2013-09-26 19:36:00,76.3,67.0,29.97,ESE,107,0.0,-999.0,72,-99.99,,,0.01,0,weatherlink.com 1.10,2013-09-27 00:36:00,
2013-09-26 19:51:00,76.0,66.0,29.98,ESE,107,0.0,-999.0,72,-99.99,,,0.01,0,weatherlink.com 1.10,2013-09-27 00:51:00,
2013-09-26 20:06:00,75.7,66.0,29.98,ESE,107,0.0,-999.0,73,-99.99,,,0.01,0,weatherlink.com 1.10,2013-09-27 01:06:00,
2013-09-26 20:21:00,75.5,66.0,29.98,ESE,107,0.0,-999.0,73,-99.99,,,0.01,0,weatherlink.com 1.10,2013-09-27 01:21:00,
2013-09-26 20:36:00,75.1,66.0,29.99,ESE,107,0.0,-999.0,74,-99.99,,,0.01,0,weatherlink.com 1.10,2013-09-27 01:36:00,
2013-09-26 20:51:00,74.6,66.0,29.99,ESE,107,0.0,-999.0,74,-99.99,,,0.01,0,weatherlink.com 1.10,2013-09-27 01:51:00,
2013-09-26 21:06:00,74.1,66.0,30.00,ESE,107,0.0,-999.0,76,-99.99,,,0.01,0,weatherlink.com 1.10,2013-09-27 02:06:00,
2013-09-26 21:21:00,73.7,66.0,30.00,ESE,107,0.0,-999.0,77,-99.99,,,0.01,0,weatherlink.com 1.10,2013-09-27 02:21:00,
2013-09-26 21:36:00,73.4,66.0,30.00,ESE,107,0.0,-999.0,77,-99.99,,,0.01,0,weatherlink.com 1.10,2013-09-27 02:36:00,
2013-09-26 21:51:00,73.1,66.0,30.01,ESE,107,0.0,-999.0,78,-99.99,,,0.01,0,weatherlink.com 1.10,2013-09-27 02:51:00,
2013-09-26 22:06:00,72.8,66.0,30.01,ESE,107,0.0,-999.0,78,-99.99,,,0.01,0,weatherlink.com 1.10,2013-09-27 03:06:00,
2013-09-26 22:21:00,72.3,65.0,30.01,ESE,107,0.0,-999.0,79,-99.99,,,0.01,0,weatherlink.com 1.10,2013-09-27 03:21:00,
2013-09-26 22:36:00,72.0,65.0,30.01,ESE,107,0.0,-999.0,79,-99.99,,,0.01,0,weatherlink.com 1.10,2013-09-27 03:36:00,
2013-09-26 22:51:00,71.9,65.0,30.01,ESE,107,0.0,-999.0,80,-99.99,,,0.01,0,weatherlink.com 1.10,2013-09-27 03:51:00,
2013-09-26 23:06:00,71.8,65.0,30.01,ESE,107,0.0,-999.0,79,-99.99,,,0.01,0,weatherlink.com 1.10,2013-09-27 04:06:00,
2013-09-26 23:21:00,71.5,65.0,30.01,ESE,107,0.0,-999.0,80,-99.99,,,0.01,0,weatherlink.com 1.10,2013-09-27 04:21:00,
2013-09-26 23:36:00,71.3,65.0,30.01,ESE,107,0.0,-999.0,81,-99.99,,,0.01,0,weatherlink.com 1.10,2013-09-27 04:36:00,
2013-09-26 23:51:00,71.1,65.0,30.02,ESE,107,0.0,-999.0,81,-99.99,,,0.01,0,weatherlink.com 1.10,2013-09-27 04:51:00,